Time;durP1;ratioP1;P1;durP2;ratioP2;P2;SDS_P1;SDS_P2;PMS_P1;PMS_P2;Temp;Humidity;BMP_temperature;BMP_pressure;BME280_temperature;BME280_humidity;BME280_pressure;Samples;Min_cycle;Max_cycle;Signal;HPM_P1;HPM_P2
2023/05/27 00:01:15;;;;;;;9.15;3.08;;;16.90;86.80;;;;;;5075283;28;20205;-66
2023/05/27 00:03:41;;;;;;;7.50;3.05;;;16.90;86.90;;;;;;5074847;28;20697;-65
2023/05/27 00:06:08;;;;;;;7.35;3.40;;;17.00;86.80;;;;;;5074786;28;20205;-65
2023/05/27 00:08:35;;;;;;;7.72;3.10;;;17.00;86.60;;;;;;5074700;28;20745;-65
2023/05/27 00:11:02;;;;;;;7.93;3.15;;;17.00;86.70;;;;;;5074824;28;20254;-66
2023/05/27 00:13:30;;;;;;;8.73;3.13;;;17.00;86.80;;;;;;5074651;28;20209;-66
2023/05/27 00:15:56;;;;;;;10.35;3.55;;;17.00;86.80;;;;;;5074734;28;20209;-67
2023/05/27 00:18:23;;;;;;;10.90;4.00;;;16.90;86.80;;;;;;5074632;28;20232;-67
2023/05/27 00:20:50;;;;;;;7.43;3.03;;;16.90;86.90;;;;;;5074628;28;20213;-66
2023/05/27 00:23:17;;;;;;;17.90;3.60;;;16.80;87.40;;;;;;5074921;28;20205;-66
2023/05/27 00:25:44;;;;;;;8.98;2.95;;;16.80;87.60;;;;;;5074213;28;20235;-66
2023/05/27 00:28:11;;;;;;;11.35;4.20;;;16.80;87.90;;;;;;5074437;28;20228;-66
2023/05/27 00:30:39;;;;;;;12.65;3.55;;;16.70;88.00;;;;;;5073816;28;20235;-66
2023/05/27 00:33:05;;;;;;;8.57;3.05;;;16.70;89.10;;;;;;5074555;28;20690;-66
2023/05/27 00:35:32;;;;;;;10.43;3.65;;;16.60;88.50;;;;;;5074263;28;20262;-66
2023/05/27 00:37:59;;;;;;;10.50;3.10;;;16.50;89.10;;;;;;5073823;28;20229;-66
2023/05/27 00:40:27;;;;;;;10.30;3.50;;;16.40;89.40;;;;;;5073982;28;20697;-66
2023/05/27 00:42:54;;;;;;;15.68;3.42;;;16.30;89.80;;;;;;5074352;28;20231;-66
2023/05/27 00:45:21;;;;;;;11.00;3.60;;;16.30;90.10;;;;;;5074341;28;20566;-65
2023/05/27 00:47:50;;;;;;;9.25;3.20;;;16.20;90.10;;;;;;5073813;28;20250;-65
2023/05/27 00:50:18;;;;;;;7.55;3.47;;;16.20;90.20;;;;;;5073872;28;20212;-65
2023/05/27 00:52:45;;;;;;;9.02;3.83;;;16.20;90.30;;;;;;5073930;28;20209;-65
2023/05/27 00:55:12;;;;;;;10.13;3.60;;;16.10;90.40;;;;;;5074138;28;20201;-65
2023/05/27 00:57:39;;;;;;;12.23;3.70;;;16.10;90.60;;;;;;5073716;28;20841;-65
2023/05/27 01:00:09;;;;;;;9.70;3.65;;;16.00;90.70;;;;;;5073970;28;20209;-66
2023/05/27 01:02:36;;;;;;;9.82;3.28;;;16.00;90.80;;;;;;5073795;28;20292;-66
2023/05/27 01:05:04;;;;;;;13.52;4.03;;;15.90;90.80;;;;;;5073673;28;20211;-66
2023/05/27 01:07:45;;;;;;;11.05;3.45;;;16.00;90.90;;;;;;5073599;28;20213;-67
2023/05/27 01:10:16;;;;;;;9.68;3.40;;;15.90;91.00;;;;;;5091046;22;20263;-63
2023/05/27 01:12:52;;;;;;;8.20;3.28;;;15.90;91.30;;;;;;5076730;28;20208;-62
2023/05/27 01:15:19;;;;;;;14.75;10.95;;;15.80;91.30;;;;;;5075822;28;20204;-62
2023/05/27 01:17:48;;;;;;;10.87;3.47;;;15.70;91.30;;;;;;5075781;28;20212;-62
2023/05/27 01:20:17;;;;;;;9.90;3.37;;;15.70;91.50;;;;;;5076825;28;20593;-62
2023/05/27 01:22:47;;;;;;;8.68;3.70;;;15.60;91.70;;;;;;5076702;28;20484;-62
2023/05/27 01:25:14;;;;;;;11.30;3.40;;;15.60;91.90;;;;;;5076164;28;20213;-62
2023/05/27 01:27:42;;;;;;;8.13;3.77;;;15.50;92.10;;;;;;5075937;28;20200;-62
2023/05/27 01:30:10;;;;;;;8.63;3.60;;;15.40;92.20;;;;;;5075861;28;20221;-62
2023/05/27 01:32:42;;;;;;;10.43;3.53;;;15.40;92.60;;;;;;5075876;28;20212;-61
2023/05/27 01:35:17;;;;;;;9.90;3.33;;;15.30;92.70;;;;;;5076339;28;20670;-62
2023/05/27 01:37:46;;;;;;;10.07;3.40;;;15.20;92.90;;;;;;5076054;28;20219;-62
2023/05/27 01:40:15;;;;;;;6.20;3.03;;;15.10;93.10;;;;;;5075827;28;20240;-61
2023/05/27 01:42:44;;;;;;;11.13;3.10;;;15.10;93.20;;;;;;5075778;28;20251;-61
2023/05/27 01:45:12;;;;;;;10.80;3.23;;;15.10;93.30;;;;;;5075845;28;20266;-63
2023/05/27 01:47:39;;;;;;;10.07;3.73;;;15.00;93.40;;;;;;5075875;28;20263;-63
2023/05/27 01:50:07;;;;;;;10.50;3.50;;;15.00;93.40;;;;;;5075726;28;20286;-62
2023/05/27 01:52:34;;;;;;;8.47;3.53;;;14.90;93.80;;;;;;5075462;28;20216;-63
2023/05/27 01:55:02;;;;;;;11.60;3.70;;;14.80;93.90;;;;;;5075506;28;20228;-62
2023/05/27 01:57:30;;;;;;;12.50;3.93;;;14.80;94.00;;;;;;5075302;28;20208;-62
2023/05/27 01:59:57;;;;;;;12.07;3.50;;;14.70;94.10;;;;;;5074908;28;20233;-62
2023/05/27 02:02:23;;;;;;;10.00;3.60;;;14.70;94.50;;;;;;5075506;28;20205;-62
2023/05/27 02:04:50;;;;;;;11.27;3.47;;;14.60;94.70;;;;;;5075627;28;20204;-63
2023/05/27 02:07:18;;;;;;;9.13;3.20;;;14.60;94.70;;;;;;5075334;28;20197;-62
2023/05/27 02:09:47;;;;;;;10.47;3.83;;;14.60;95.10;;;;;;5075790;28;20616;-62
2023/05/27 02:12:15;;;;;;;8.83;3.20;;;14.50;95.50;;;;;;5076419;28;20211;-61
2023/05/27 02:14:42;;;;;;;11.23;3.50;;;14.40;95.50;;;;;;5077684;28;20200;-62
2023/05/27 02:17:09;;;;;;;12.30;4.07;;;14.40;95.50;;;;;;5075976;28;20205;-62
2023/05/27 02:19:36;;;;;;;9.33;3.40;;;14.40;95.60;;;;;;5074859;28;20228;-62
2023/05/27 02:22:03;;;;;;;9.93;3.97;;;14.50;95.60;;;;;;5075179;28;20205;-63
2023/05/27 02:24:29;;;;;;;10.93;3.87;;;14.50;95.90;;;;;;5074802;28;20582;-62
2023/05/27 02:26:56;;;;;;;10.50;3.57;;;14.50;95.90;;;;;;5074865;28;20689;-62
2023/05/27 02:29:24;;;;;;;9.03;3.67;;;14.50;95.90;;;;;;5075366;28;20229;-64
2023/05/27 02:31:51;;;;;;;13.60;4.03;;;14.60;96.00;;;;;;5074940;28;20201;-63
2023/05/27 02:34:17;;;;;;;10.67;3.63;;;14.60;96.50;;;;;;5075121;28;20220;-62
2023/05/27 02:36:44;;;;;;;9.67;3.63;;;14.50;96.30;;;;;;5074801;28;20211;-61
2023/05/27 02:39:11;;;;;;;10.13;3.83;;;14.50;96.30;;;;;;5074581;28;20293;-62
2023/05/27 02:41:38;;;;;;;13.83;4.07;;;14.50;96.60;;;;;;5075483;28;20589;-62
2023/05/27 02:44:06;;;;;;;9.93;4.00;;;14.40;96.60;;;;;;5075181;28;20205;-62
2023/05/27 02:46:34;;;;;;;10.93;3.90;;;14.40;96.60;;;;;;5074453;28;20201;-63
2023/05/27 02:49:01;;;;;;;11.27;3.37;;;14.40;96.70;;;;;;5073927;28;20601;-62
2023/05/27 02:51:29;;;;;;;10.67;3.63;;;14.40;97.00;;;;;;5073811;28;20201;-62
2023/05/27 02:53:56;;;;;;;10.83;3.70;;;14.30;97.10;;;;;;5073075;28;20208;-62
2023/05/27 02:56:25;;;;;;;8.67;3.30;;;14.30;97.10;;;;;;5073320;28;20209;-63
2023/05/27 02:58:52;;;;;;;11.97;3.90;;;14.30;97.30;;;;;;5073703;28;20221;-62
2023/05/27 03:01:19;;;;;;;6.77;3.50;;;14.20;97.30;;;;;;5073881;28;20700;-62
2023/05/27 03:03:47;;;;;;;12.40;3.67;;;14.10;97.40;;;;;;5075123;28;20591;-62
2023/05/27 03:06:14;;;;;;;11.63;4.03;;;14.10;97.60;;;;;;5073700;28;20208;-63
2023/05/27 03:08:41;;;;;;;12.57;3.70;;;14.00;97.60;;;;;;5074569;28;20813;-63
2023/05/27 03:11:08;;;;;;;11.80;3.97;;;14.00;97.90;;;;;;5074138;28;20743;-62
2023/05/27 03:13:35;;;;;;;9.80;3.80;;;14.00;98.00;;;;;;5074121;28;20619;-63
2023/05/27 03:16:01;;;;;;;9.00;3.60;;;14.00;98.10;;;;;;5074121;28;20213;-63
2023/05/27 03:18:28;;;;;;;10.87;3.30;;;14.00;98.20;;;;;;5074098;28;20229;-63
2023/05/27 03:20:56;;;;;;;8.90;3.63;;;13.90;98.20;;;;;;5073746;28;20216;-63
2023/05/27 03:23:23;;;;;;;9.77;3.87;;;13.90;98.30;;;;;;5073734;28;20200;-61
2023/05/27 03:25:50;;;;;;;10.47;3.87;;;14.00;98.20;;;;;;5073497;28;20217;-62
2023/05/27 03:28:17;;;;;;;13.83;3.60;;;14.10;98.30;;;;;;5073988;28;20736;-62
2023/05/27 03:30:44;;;;;;;12.00;4.30;;;14.10;98.30;;;;;;5073372;28;20201;-61
2023/05/27 03:33:11;;;;;;;12.07;3.87;;;14.00;98.40;;;;;;5073490;28;20216;-62
2023/05/27 03:35:37;;;;;;;10.83;4.10;;;14.00;98.40;;;;;;5073602;28;20209;-62
2023/05/27 03:38:05;;;;;;;12.43;3.80;;;14.00;98.70;;;;;;5073911;28;20211;-63
2023/05/27 03:40:32;;;;;;;12.97;4.23;;;13.90;98.90;;;;;;5074409;28;20225;-63
2023/05/27 03:42:59;;;;;;;11.00;3.70;;;14.00;99.00;;;;;;5074969;28;20232;-63
2023/05/27 03:45:26;;;;;;;10.53;3.87;;;14.00;99.00;;;;;;5074468;28;20713;-61
2023/05/27 03:47:53;;;;;;;10.33;3.90;;;14.00;99.00;;;;;;5073791;28;20209;-62
2023/05/27 03:50:20;;;;;;;8.13;4.27;;;14.00;99.10;;;;;;5073911;28;20291;-61
2023/05/27 03:52:46;;;;;;;9.67;4.10;;;14.00;99.20;;;;;;5074009;28;20208;-61
2023/05/27 03:55:16;;;;;;;10.33;4.07;;;14.00;99.30;;;;;;5073952;28;20216;-62
2023/05/27 03:57:43;;;;;;;13.30;4.00;;;14.10;99.20;;;;;;5073942;28;20213;-61
2023/05/27 04:00:12;;;;;;;9.10;3.53;;;14.10;99.00;;;;;;5073706;28;20224;-63
2023/05/27 04:02:38;;;;;;;13.27;4.27;;;14.30;99.00;;;;;;5073047;28;20205;-62
2023/05/27 04:05:06;;;;;;;11.10;3.77;;;14.30;98.90;;;;;;5073881;28;20580;-62
2023/05/27 04:07:32;;;;;;;10.93;4.53;;;14.40;98.90;;;;;;5076602;28;20212;-62
2023/05/27 04:09:59;;;;;;;13.53;5.20;;;14.40;98.90;;;;;;5077056;28;20736;-62
2023/05/27 04:12:27;;;;;;;14.07;3.93;;;14.50;99.20;;;;;;5077324;28;20276;-63
2023/05/27 04:14:56;;;;;;;12.87;5.90;;;14.50;99.10;;;;;;5076891;28;20209;-62
2023/05/27 04:17:22;;;;;;;10.60;4.03;;;14.60;99.10;;;;;;5077379;28;20205;-62
2023/05/27 04:19:49;;;;;;;9.53;3.57;;;14.70;99.10;;;;;;5077870;28;20235;-62
2023/05/27 04:22:16;;;;;;;15.23;5.67;;;14.70;99.10;;;;;;5078243;28;20660;-63
2023/05/27 04:24:43;;;;;;;12.50;4.50;;;14.90;99.10;;;;;;5076665;28;20236;-62
2023/05/27 04:27:12;;;;;;;10.87;3.90;;;14.90;99.00;;;;;;5076928;28;20205;-63
2023/05/27 04:29:42;;;;;;;13.37;3.93;;;15.00;98.60;;;;;;5076814;28;20225;-62
2023/05/27 04:32:09;;;;;;;12.37;3.70;;;15.10;98.60;;;;;;5077635;28;20209;-62
2023/05/27 04:34:36;;;;;;;10.63;3.90;;;15.20;98.70;;;;;;5077212;28;20213;-62
2023/05/27 04:37:03;;;;;;;18.30;6.37;;;15.30;98.70;;;;;;5076427;28;20212;-62
2023/05/27 04:39:30;;;;;;;14.73;5.87;;;15.40;98.30;;;;;;5076935;28;20233;-62
2023/05/27 04:41:58;;;;;;;10.93;5.07;;;15.50;98.30;;;;;;5077414;28;20201;-62
2023/05/27 04:44:26;;;;;;;11.93;6.17;;;15.60;98.60;;;;;;5077060;28;20216;-62
2023/05/27 04:46:54;;;;;;;10.00;5.57;;;15.80;98.80;;;;;;5076735;28;20238;-63
2023/05/27 04:49:22;;;;;;;11.60;5.37;;;15.90;98.90;;;;;;5076777;28;20290;-63
2023/05/27 04:51:48;;;;;;;8.03;3.87;;;16.00;98.90;;;;;;5077600;28;20207;-63
2023/05/27 04:54:15;;;;;;;12.97;4.43;;;16.20;98.90;;;;;;5077409;28;20209;-62
2023/05/27 04:56:43;;;;;;;9.32;3.97;;;16.30;98.80;;;;;;5077398;28;20213;-62
2023/05/27 04:59:16;;;;;;;10.00;3.63;;;16.50;98.50;;;;;;5077461;28;20229;-62
2023/05/27 05:01:59;;;;;;;13.88;4.07;;;16.60;97.50;;;;;;5077174;28;20231;-62
2023/05/27 05:04:27;;;;;;;9.13;3.50;;;16.60;96.50;;;;;;5077132;28;20693;-62
2023/05/27 05:06:55;;;;;;;10.38;3.42;;;16.70;96.30;;;;;;5076381;28;20212;-62
2023/05/27 05:09:22;;;;;;;12.63;3.80;;;16.80;96.00;;;;;;5076027;28;20255;-62
2023/05/27 05:11:48;;;;;;;9.63;3.53;;;17.00;95.70;;;;;;5076074;28;20310;-62
2023/05/27 05:14:15;;;;;;;11.52;3.88;;;17.30;95.40;;;;;;5076214;28;20208;-63
2023/05/27 05:16:42;;;;;;;12.13;4.15;;;18.00;94.90;;;;;;5075544;28;20208;-63
2023/05/27 05:19:09;;;;;;;9.65;3.53;;;19.00;93.20;;;;;;5075790;28;20225;-63
2023/05/27 05:21:37;;;;;;;13.38;3.95;;;20.40;91.70;;;;;;5075924;28;20702;-63
2023/05/27 05:24:04;;;;;;;10.05;3.50;;;21.40;89.40;;;;;;5076014;28;20205;-62
2023/05/27 05:26:31;;;;;;;9.05;3.58;;;21.50;87.30;;;;;;5075869;28;20205;-62
2023/05/27 05:28:58;;;;;;;12.45;3.60;;;21.00;87.50;;;;;;5075486;28;20744;-62
2023/05/27 05:31:25;;;;;;;11.43;4.15;;;20.70;88.40;;;;;;5075902;28;20212;-63
2023/05/27 05:33:52;;;;;;;11.50;3.92;;;21.10;87.60;;;;;;5076026;28;20205;-63
2023/05/27 05:36:18;;;;;;;10.40;3.75;;;21.80;86.40;;;;;;5076281;28;20215;-63
2023/05/27 05:38:47;;;;;;;9.88;3.50;;;22.30;84.70;;;;;;5076239;28;20609;-63
2023/05/27 05:41:13;;;;;;;9.48;3.78;;;22.70;83.40;;;;;;5076104;28;20239;-63
2023/05/27 05:43:40;;;;;;;10.13;3.45;;;23.40;81.10;;;;;;5075433;28;20221;-63
2023/05/27 05:46:07;;;;;;;9.65;3.25;;;24.40;79.70;;;;;;5075874;28;20394;-64
2023/05/27 05:48:34;;;;;;;9.93;3.20;;;25.50;74.90;;;;;;5075845;28;20322;-63
2023/05/27 05:51:01;;;;;;;9.52;3.42;;;26.10;72.60;;;;;;5075270;28;20209;-63
2023/05/27 05:53:29;;;;;;;9.85;3.92;;;26.60;71.30;;;;;;5075038;28;20300;-62
2023/05/27 05:55:57;;;;;;;8.80;3.67;;;27.20;69.20;;;;;;5075512;28;20259;-62
2023/05/27 05:58:24;;;;;;;9.73;3.28;;;27.70;68.50;;;;;;5075499;28;20225;-62
2023/05/27 06:00:51;;;;;;;7.25;3.40;;;28.50;65.80;;;;;;5074969;28;20249;-63
2023/05/27 06:03:18;;;;;;;10.95;3.45;;;29.10;63.70;;;;;;5075373;28;20208;-64
2023/05/27 06:05:44;;;;;;;9.57;3.78;;;29.30;62.30;;;;;;5075367;28;20211;-63
2023/05/27 06:08:11;;;;;;;8.27;3.20;;;29.40;62.00;;;;;;5075211;28;20701;-63
2023/05/27 06:10:38;;;;;;;10.20;3.75;;;29.80;61.10;;;;;;5075510;28;20211;-64
2023/05/27 06:13:06;;;;;;;9.27;3.65;;;30.00;59.10;;;;;;5075134;28;20209;-63
2023/05/27 06:15:33;;;;;;;10.05;3.38;;;30.10;58.30;;;;;;5075104;28;20204;-63
2023/05/27 06:18:00;;;;;;;8.32;3.72;;;30.40;57.50;;;;;;5075412;28;20212;-64
2023/05/27 06:20:26;;;;;;;7.63;3.58;;;30.50;57.40;;;;;;5075887;28;20225;-62
2023/05/27 06:22:53;;;;;;;6.63;3.40;;;30.70;56.60;;;;;;5075882;28;20723;-63
2023/05/27 06:25:20;;;;;;;8.27;3.65;;;30.80;55.70;;;;;;5075293;28;20205;-63
2023/05/27 06:27:47;;;;;;;7.97;3.20;;;30.80;55.00;;;;;;5074594;28;20212;-63
2023/05/27 06:30:15;;;;;;;12.40;3.60;;;30.80;54.80;;;;;;5073835;28;20629;-64
2023/05/27 06:32:42;;;;;;;9.45;3.60;;;30.80;55.20;;;;;;5074534;28;20208;-63
2023/05/27 06:35:09;;;;;;;7.53;3.83;;;31.20;54.80;;;;;;5074990;28;20205;-64
2023/05/27 06:37:36;;;;;;;7.38;3.45;;;31.80;54.10;;;;;;5074039;28;20209;-64
2023/05/27 06:40:03;;;;;;;8.90;3.28;;;32.60;52.30;;;;;;5074581;28;20228;-63
2023/05/27 06:42:30;;;;;;;10.40;3.80;;;32.90;51.70;;;;;;5074804;28;20209;-63
2023/05/27 06:44:57;;;;;;;8.13;3.50;;;32.90;51.30;;;;;;5074615;28;20215;-64
2023/05/27 06:47:25;;;;;;;9.48;3.50;;;32.90;51.00;;;;;;5074522;28;20216;-63
2023/05/27 06:49:51;;;;;;;7.70;2.90;;;32.80;50.80;;;;;;5074269;28;20232;-64
2023/05/27 06:52:18;;;;;;;8.45;3.13;;;32.80;50.60;;;;;;5072437;28;20666;-62
2023/05/27 06:54:45;;;;;;;9.07;3.25;;;33.00;50.60;;;;;;5072300;28;20204;-61
2023/05/27 06:57:12;;;;;;;8.90;3.80;;;33.40;50.10;;;;;;5072249;28;20209;-61
2023/05/27 06:59:40;;;;;;;6.75;3.08;;;34.00;48.90;;;;;;5071942;28;20668;-61
2023/05/27 07:02:07;;;;;;;8.35;3.65;;;34.60;48.40;;;;;;5072342;28;20262;-61
2023/05/27 07:04:35;;;;;;;12.98;3.90;;;35.10;47.60;;;;;;5072215;28;20208;-61
2023/05/27 07:07:03;;;;;;;8.10;3.75;;;35.60;47.00;;;;;;5071891;28;20208;-61
2023/05/27 07:09:30;;;;;;;9.45;3.75;;;35.80;46.10;;;;;;5072312;28;20591;-61
2023/05/27 07:11:57;;;;;;;8.32;3.38;;;35.50;45.90;;;;;;5072562;28;20205;-62
2023/05/27 07:14:23;;;;;;;7.25;3.55;;;35.00;46.30;;;;;;5072180;28;20235;-60
2023/05/27 07:16:50;;;;;;;8.38;3.20;;;35.00;47.00;;;;;;5072091;28;20208;-60
2023/05/27 07:19:17;;;;;;;6.22;3.30;;;35.30;46.10;;;;;;5072042;28;20243;-62
2023/05/27 07:21:45;;;;;;;6.95;3.30;;;35.80;45.50;;;;;;5072293;28;20225;-61
2023/05/27 07:24:11;;;;;;;7.22;3.67;;;36.10;44.50;;;;;;5072094;28;20213;-61
2023/05/27 07:26:39;;;;;;;9.25;3.50;;;36.30;44.60;;;;;;5071617;28;20298;-60
2023/05/27 07:29:06;;;;;;;9.25;3.20;;;36.80;44.00;;;;;;5071944;28;20323;-61
2023/05/27 07:31:33;;;;;;;8.20;3.30;;;36.90;43.40;;;;;;5071875;28;20697;-62
2023/05/27 07:34:00;;;;;;;11.13;3.63;;;36.50;43.70;;;;;;5072164;28;20208;-61
2023/05/27 07:36:27;;;;;;;8.27;3.60;;;36.30;43.80;;;;;;5071499;28;20236;-61
2023/05/27 07:38:55;;;;;;;6.93;3.20;;;36.20;44.50;;;;;;5071618;28;20601;-62
2023/05/27 07:41:21;;;;;;;7.05;3.33;;;36.30;43.60;;;;;;5075004;28;20221;-62
2023/05/27 07:43:48;;;;;;;8.02;3.65;;;36.00;43.80;;;;;;5075853;28;20251;-61
2023/05/27 07:46:15;;;;;;;6.05;3.13;;;36.10;43.60;;;;;;5075464;28;20212;-61
2023/05/27 07:48:42;;;;;;;7.88;3.42;;;36.20;43.70;;;;;;5075721;28;20295;-62
2023/05/27 07:51:08;;;;;;;7.22;3.40;;;36.30;43.40;;;;;;5075726;28;20219;-61
2023/05/27 07:53:37;;;;;;;9.40;3.92;;;36.10;43.70;;;;;;5075808;28;20205;-61
2023/05/27 07:56:05;;;;;;;7.85;4.05;;;36.00;44.00;;;;;;5075241;28;20215;-61
2023/05/27 07:58:32;;;;;;;7.28;3.40;;;36.30;43.20;;;;;;5075541;28;20231;-62
2023/05/27 08:00:58;;;;;;;7.85;3.40;;;36.50;43.20;;;;;;5075894;28;20261;-60
2023/05/27 08:03:25;;;;;;;9.30;3.70;;;36.80;43.40;;;;;;5076034;28;20211;-61
2023/05/27 08:05:52;;;;;;;7.30;3.30;;;37.20;42.40;;;;;;5075707;28;20205;-62
2023/05/27 08:08:19;;;;;;;6.22;3.20;;;37.50;42.10;;;;;;5075762;28;20266;-61
2023/05/27 08:10:46;;;;;;;8.48;3.20;;;37.20;42.00;;;;;;5076113;28;20193;-61
2023/05/27 08:13:14;;;;;;;6.70;3.38;;;37.00;42.80;;;;;;5076041;28;20258;-61
2023/05/27 08:15:41;;;;;;;9.52;3.60;;;37.00;42.90;;;;;;5075590;28;20205;-61
2023/05/27 08:18:08;;;;;;;9.50;3.50;;;36.50;43.20;;;;;;5075556;28;20228;-61
2023/05/27 08:20:34;;;;;;;7.60;3.50;;;36.30;43.10;;;;;;5075377;28;20253;-62
2023/05/27 08:23:01;;;;;;;7.97;3.60;;;36.00;43.30;;;;;;5075327;28;20219;-61
2023/05/27 08:25:28;;;;;;;9.98;3.75;;;35.70;43.70;;;;;;5075284;28;20209;-61
2023/05/27 08:28:01;;;;;;;7.32;3.58;;;35.40;44.30;;;;;;5074978;28;20219;-61
2023/05/27 08:30:29;;;;;;;6.70;3.30;;;34.80;45.10;;;;;;5075345;28;20316;-61
2023/05/27 08:32:56;;;;;;;8.80;3.70;;;35.20;44.60;;;;;;5075075;28;20670;-61
2023/05/27 08:35:23;;;;;;;7.95;3.83;;;35.50;43.80;;;;;;5075009;28;20220;-63
2023/05/27 08:37:50;;;;;;;10.70;4.03;;;35.10;44.50;;;;;;5074605;28;20314;-62
2023/05/27 08:40:19;;;;;;;10.15;4.18;;;34.60;45.10;;;;;;5075026;28;20403;-61
2023/05/27 08:42:47;;;;;;;11.57;3.90;;;33.80;46.20;;;;;;5074955;28;20267;-60
2023/05/27 08:45:14;;;;;;;10.45;3.70;;;33.10;47.10;;;;;;5075032;28;20578;-61
2023/05/27 08:47:43;;;;;;;7.18;3.40;;;32.20;48.10;;;;;;5074585;28;20671;-61
2023/05/27 08:50:10;;;;;;;9.52;4.28;;;31.10;49.70;;;;;;5075001;28;20229;-61
2023/05/27 08:52:43;;;;;;;7.05;3.90;;;29.90;51.70;;;;;;5074387;28;20211;-59
2023/05/27 08:55:13;;;;;;;8.93;4.22;;;28.70;53.50;;;;;;5075128;28;20201;-59
2023/05/27 08:57:44;;;;;;;11.15;3.97;;;27.70;55.40;;;;;;5074993;28;20215;-60
2023/05/27 09:00:13;;;;;;;7.90;4.07;;;27.00;56.60;;;;;;5075105;28;20256;-59
2023/05/27 09:02:41;;;;;;;8.80;3.35;;;26.60;57.20;;;;;;5075027;28;20229;-59
2023/05/27 09:05:09;;;;;;;9.55;3.78;;;26.20;58.00;;;;;;5074725;28;20209;-59
2023/05/27 09:07:37;;;;;;;8.98;3.95;;;26.00;58.70;;;;;;5074453;28;20670;-59
2023/05/27 09:10:06;;;;;;;7.00;3.80;;;25.90;59.40;;;;;;5074312;28;20235;-61
2023/05/27 09:12:36;;;;;;;8.20;3.88;;;25.70;60.10;;;;;;5074104;28;20240;-60
2023/05/27 09:15:03;;;;;;;9.80;4.07;;;25.30;60.20;;;;;;5074035;28;20734;-60
2023/05/27 09:17:31;;;;;;;10.25;4.07;;;24.80;61.50;;;;;;5074161;28;20548;-60
2023/05/27 09:19:59;;;;;;;11.40;4.13;;;24.70;62.30;;;;;;5074582;28;20426;-60
2023/05/27 09:22:29;;;;;;;8.95;4.38;;;24.70;63.00;;;;;;5074279;28;20225;-59
2023/05/27 09:24:56;;;;;;;7.65;3.70;;;24.60;62.90;;;;;;5074886;28;20215;-60
2023/05/27 09:27:26;;;;;;;11.80;3.97;;;24.50;64.00;;;;;;5074827;28;20620;-60
2023/05/27 09:29:54;;;;;;;9.18;3.85;;;24.30;63.60;;;;;;5075028;28;20221;-59
2023/05/27 09:32:27;;;;;;;9.43;4.05;;;24.20;64.40;;;;;;5075644;28;20212;-60
2023/05/27 09:34:55;;;;;;;9.55;3.67;;;24.10;64.80;;;;;;5075353;28;20216;-60
2023/05/27 09:37:25;;;;;;;10.32;3.60;;;24.10;65.40;;;;;;5075474;28;20235;-59
2023/05/27 09:39:53;;;;;;;6.90;3.78;;;24.00;64.60;;;;;;5075327;28;20232;-59
2023/05/27 09:42:20;;;;;;;8.18;3.53;;;24.00;65.60;;;;;;5075424;28;20228;-59
2023/05/27 09:44:49;;;;;;;9.00;3.88;;;24.00;66.00;;;;;;5075341;28;20240;-61
2023/05/27 09:47:18;;;;;;;9.65;4.13;;;23.90;66.00;;;;;;5074130;28;20201;-60
2023/05/27 09:49:46;;;;;;;9.25;4.03;;;23.90;66.10;;;;;;5074378;28;20225;-62
2023/05/27 09:52:17;;;;;;;8.07;3.50;;;24.00;65.20;;;;;;5073838;28;20205;-61
2023/05/27 09:54:46;;;;;;;10.43;3.65;;;24.10;65.00;;;;;;5073702;28;20299;-60
2023/05/27 09:57:14;;;;;;;10.75;4.10;;;24.30;65.70;;;;;;5074383;28;20258;-61
2023/05/27 09:59:42;;;;;;;7.28;3.78;;;24.40;64.90;;;;;;5074427;28;20746;-60
2023/05/27 10:02:10;;;;;;;9.30;3.90;;;24.30;65.40;;;;;;5073999;28;20238;-60
2023/05/27 10:04:36;;;;;;;7.95;3.65;;;24.30;64.50;;;;;;5073471;28;20204;-60
2023/05/27 10:07:03;;;;;;;7.18;3.88;;;24.20;64.50;;;;;;5073339;28;20768;-61
2023/05/27 10:09:31;;;;;;;9.35;3.95;;;24.20;64.70;;;;;;5073961;28;20271;-60
2023/05/27 10:11:59;;;;;;;8.10;3.80;;;24.30;64.70;;;;;;5073952;28;20212;-60
2023/05/27 10:14:27;;;;;;;9.48;3.70;;;24.40;64.60;;;;;;5073897;28;20685;-60
2023/05/27 10:16:56;;;;;;;9.05;3.78;;;24.40;64.00;;;;;;5073320;28;20205;-60
2023/05/27 10:19:23;;;;;;;6.60;3.70;;;24.30;63.10;;;;;;5073329;28;20227;-60
2023/05/27 10:21:49;;;;;;;8.27;3.80;;;24.30;61.90;;;;;;5073785;28;20605;-60
2023/05/27 10:24:17;;;;;;;8.38;3.90;;;24.30;62.90;;;;;;5074172;28;20201;-60
2023/05/27 10:26:45;;;;;;;7.47;3.50;;;24.20;63.10;;;;;;5073157;28;20224;-62
2023/05/27 10:29:15;;;;;;;8.25;4.25;;;24.20;62.90;;;;;;5074781;28;20274;-63
2023/05/27 10:31:46;;;;;;;8.98;3.63;;;24.30;62.80;;;;;;5075368;28;20273;-61
2023/05/27 10:34:13;;;;;;;8.85;4.10;;;24.40;62.20;;;;;;5074998;28;20209;-60
2023/05/27 10:36:40;;;;;;;6.95;4.10;;;24.40;62.70;;;;;;5075898;28;20679;-61
2023/05/27 10:39:14;;;;;;;6.45;3.88;;;24.40;63.70;;;;;;5074813;28;20240;-62
2023/05/27 10:41:42;;;;;;;8.80;3.92;;;24.40;63.30;;;;;;5075459;28;20236;-61
2023/05/27 10:44:09;;;;;;;10.32;4.50;;;24.50;63.30;;;;;;5075524;28;20205;-61
2023/05/27 10:46:42;;;;;;;6.55;3.63;;;24.70;64.30;;;;;;5074347;28;20208;-64
2023/05/27 10:49:16;;;;;;;10.57;3.95;;;24.90;63.20;;;;;;5075144;28;20220;-60
2023/05/27 10:51:44;;;;;;;7.68;4.10;;;24.90;62.50;;;;;;5074664;28;20206;-60
2023/05/27 10:54:12;;;;;;;8.90;3.70;;;25.00;62.60;;;;;;5075460;28;20211;-61
2023/05/27 10:56:50;;;;;;;6.90;3.65;;;25.00;62.30;;;;;;5074729;28;20783;-60
2023/05/27 10:59:21;;;;;;;7.32;3.88;;;24.80;63.40;;;;;;5074419;28;20228;-61
2023/05/27 11:01:51;;;;;;;7.65;3.55;;;24.80;62.40;;;;;;5074316;28;20235;-58
2023/05/27 11:04:18;;;;;;;7.03;3.53;;;24.70;62.20;;;;;;5073378;28;20666;-61
2023/05/27 11:06:57;;;;;;;8.52;3.45;;;24.80;62.40;;;;;;5072544;28;20205;-58
2023/05/27 11:09:24;;;;;;;12.88;3.95;;;24.70;62.70;;;;;;5073437;28;20609;-57
2023/05/27 11:11:51;;;;;;;8.48;3.95;;;24.70;62.50;;;;;;5073008;28;20197;-59
2023/05/27 11:14:19;;;;;;;11.18;4.35;;;24.90;62.50;;;;;;5072840;28;20582;-58
2023/05/27 11:16:51;;;;;;;7.13;3.80;;;25.00;61.80;;;;;;5076884;28;20299;-59
2023/05/27 11:19:18;;;;;;;12.18;4.05;;;25.10;62.00;;;;;;5076969;28;20250;-57
2023/05/27 11:21:46;;;;;;;9.25;3.72;;;25.20;63.50;;;;;;5076884;28;20228;-58
2023/05/27 11:24:16;;;;;;;7.55;3.78;;;25.10;63.10;;;;;;5076607;28;20268;-59
2023/05/27 11:26:44;;;;;;;8.77;3.88;;;25.10;64.30;;;;;;5076166;28;20208;-60
2023/05/27 11:29:11;;;;;;;8.63;3.75;;;25.20;64.20;;;;;;5076569;28;20232;-60
2023/05/27 11:31:40;;;;;;;7.90;3.80;;;25.40;62.70;;;;;;5076353;28;20197;-60
2023/05/27 11:34:13;;;;;;;7.53;3.85;;;25.50;61.00;;;;;;5076352;28;20208;-59
2023/05/27 11:36:41;;;;;;;8.73;3.85;;;25.50;61.00;;;;;;5076191;28;20212;-59
2023/05/27 11:39:13;;;;;;;10.18;3.85;;;25.70;60.60;;;;;;5076285;28;20694;-59
2023/05/27 11:41:49;;;;;;;8.57;3.92;;;25.80;61.10;;;;;;5076293;28;20599;-60
2023/05/27 11:44:15;;;;;;;8.98;4.15;;;25.60;61.40;;;;;;5076217;28;20244;-60
2023/05/27 11:46:44;;;;;;;10.15;3.70;;;25.40;61.40;;;;;;5075540;28;20258;-59
2023/05/27 11:49:14;;;;;;;9.95;3.70;;;25.30;62.80;;;;;;5075904;28;20233;-58
2023/05/27 11:51:42;;;;;;;8.98;3.70;;;25.40;63.30;;;;;;5076275;28;20209;-58
2023/05/27 11:54:18;;;;;;;6.55;3.60;;;25.60;62.50;;;;;;5076210;28;20205;-59
2023/05/27 11:56:45;;;;;;;8.23;4.05;;;25.70;62.50;;;;;;5075446;28;20211;-58
2023/05/27 11:59:11;;;;;;;7.57;3.35;;;25.80;61.90;;;;;;5075740;28;20231;-59
2023/05/27 12:01:38;;;;;;;11.02;4.07;;;25.70;61.10;;;;;;5075700;28;20600;-59
2023/05/27 12:04:05;;;;;;;10.45;4.00;;;25.70;62.00;;;;;;5075405;28;20662;-58
2023/05/27 12:06:34;;;;;;;10.38;4.18;;;25.60;61.00;;;;;;5075456;28;20262;-59
2023/05/27 12:09:01;;;;;;;13.13;4.03;;;25.70;61.10;;;;;;5075579;28;20290;-60
2023/05/27 12:11:27;;;;;;;8.95;4.00;;;25.70;61.30;;;;;;5076058;28;20204;-60
2023/05/27 12:13:55;;;;;;;9.85;4.00;;;25.70;62.10;;;;;;5075548;28;20682;-60
2023/05/27 12:16:21;;;;;;;8.23;3.70;;;25.70;61.70;;;;;;5075250;28;20292;-59
2023/05/27 12:18:48;;;;;;;11.48;3.97;;;25.80;61.30;;;;;;5075793;28;20228;-62
2023/05/27 12:21:16;;;;;;;10.10;3.90;;;25.80;61.20;;;;;;5075657;28;20205;-59
2023/05/27 12:23:44;;;;;;;7.80;3.78;;;25.80;60.40;;;;;;5075660;28;20256;-61
2023/05/27 12:26:12;;;;;;;7.90;3.92;;;25.90;60.80;;;;;;5074295;28;20209;-60
2023/05/27 12:28:39;;;;;;;7.43;3.70;;;25.90;60.60;;;;;;5075044;28;20222;-59
2023/05/27 12:31:07;;;;;;;6.45;3.35;;;26.00;60.40;;;;;;5074970;28;20574;-59
2023/05/27 12:33:33;;;;;;;7.32;3.75;;;25.90;60.40;;;;;;5075360;28;20593;-59
2023/05/27 12:36:01;;;;;;;12.65;4.22;;;25.90;59.60;;;;;;5074940;28;20213;-58
2023/05/27 12:38:28;;;;;;;10.15;3.60;;;25.90;60.80;;;;;;5074664;28;20228;-59
2023/05/27 12:40:57;;;;;;;10.45;4.10;;;25.80;59.80;;;;;;5075280;28;20213;-61
2023/05/27 12:43:25;;;;;;;7.45;3.28;;;25.80;59.40;;;;;;5075219;28;20267;-59
2023/05/27 12:45:52;;;;;;;8.13;4.00;;;25.80;60.20;;;;;;5074886;28;20216;-59